Seward, AK

6:39 PM AKDT on July 30, 2014 (GMT -0800)
Seward (PAWD) Elev 20 ft | 60.13 °N, 149.42 °W | Change Station

Current weather conditions updated 46 minutes ago

Mostly Cloudy
Mostly Cloudy
65 °F
Feels Like 65 °F
N
13
Wind Variable Wind from South

Tomorrow is forecast to be nearly the same temperature as today.

Today
High -- | Low -- °F
--% Chance of Precip.
Yesterday
High -- | Low -- °F
Precip. -- in
5:33 AM 10:33 PM
Waxing Crescent, 15% visible
Pressure 30.24 in
Visibility 10.0 miles
Clouds Mostly Cloudy 6500 ft
Dew Point 54 °F
Humidity 68%
Rainfall 0.00 in
Snow Depth 15 in
UV 2 out of 12
Pollen Not available.
Air Quality Not available.
Flu Activity Not available.
METAR PAWD 310153Z AUTO 19011KT 10SM BKN065 18/12 A3024 RMK AO2 SLP239 T01830122 TSNO

More Conditions Fewer Conditions

Pressure 30.24 in
Visibility 10.0 miles
Clouds Mostly Cloudy 6500 ft
Dew Point 54 °F
Humidity 68%
Rainfall 0.00 in
Snow Depth 15 in
UV 2 out of 12
Pollen Not available.
Air Quality Not available.
Flu Activity Not available.
METAR PAWD 310153Z AUTO 19011KT 10SM BKN065 18/12 A3024 RMK AO2 SLP239 T01830122 TSNO

More Conditions Fewer Conditions

10-Day Weather Forecast

Almanac

Astronomy

Jul. 30, 2014 Rise Set
Actual Time 5:33 AM AKDT 10:33 PM AKDT
Civil Twilight 4:30 AM AKDT 11:34 PM AKDT
Nautical Twilight 2:36 AM AKDT 1:31 AM AKDT
Astronomical Twilight Sun does not rise Sun does not rise
Moon 10:28 AM AKDT (7/30) 10:59 PM AKDT (7/30)
Length of Visible Light 19h 03m
Length of Day
16h 59m
Tomorrow will be 4m 50s shorter.
Waxing Crescent, 15% of the Moon is Illuminated
Today
Waxing Crescent
Aug 3
First Quarter
Aug 10
Full
Aug 17
Last Quarter
Aug 25
New

Today's Extremes

State Highs State Lows

Community

WunderPhotos

Upload Photos

1,739,272 photos uploaded!

Nearby

Snow Depth

Station Depth Elevation
Cooper Lake 15 in 1200 ft
Summit Creek 0 in 1400 ft
Grandview 4 in 1100 ft
Turnagain Pass 0 in 1880 ft
MF Bradley River 411 in 2300 ft

Earthquake Activity

City Distance Mag. Time & Date
No recent earthquake activity has been reported nearby.
Minimum magnitude displayed is 2.5.

Coastal Water Temperatures

Place Temperature
No Stations Reporting

Nearby Weather Stations

Station Location Temp. Windchill Dew Point Humidity Wind Precip. Elev Updated Type
Oak Street Forest Acres Seward Alaska, Seward, AK 65.6 °F - 54 °F 66% North  at  0.0 mph 0.00 in / hr 144 ft 6:38 PM AKDT Rapid Fire
RAWS PEDERSEN LAGOON AK, Seward, AK 63 °F - 50 °F 64% SSE  at  6 mph 0.00 in / hr 625 ft 5:28 PM AKDT MADIS
RAWS KENAI LAKE AK, Moose Pass, AK 71 °F - 49 °F 46% SSE  at  2 mph 0.00 in / hr 470 ft 5:56 PM AKDT MADIS
RAWS HARDING ICEFIELD AK, Seward, AK 45 °F 39 °F 38 °F 76% WNW  at  11 mph 0.00 in / hr 4299 ft 5:43 PM AKDT MADIS

Show More Stations Show Fewer Stations